Detall de PIREP

Printer-friendly versionPDF version

[2010/03/11 08:13:00]
Flight IATA:CT0001
Pilot Number:041
Company ICAO:CAT
Aircraft Type:F70/A
PAX:75
Departing Airport: LEVC
Destination Airport: LEDA
Alternate Airport:LEBL
Online: VATSIM
Route:TATOS A34 SAURA CRETA MLA CASPE SEROX R870 VILAR
Flight Level:FL140
No Slew and time accel
No pause
Crash detect
Detect pilot in Cockpit between each 30 and 45 minutes
08:13 Zero fuel Weight: 71024 Lbs, Fuel Weight: 5577 Lbs
08:13 VATSIM:LEVC 110800Z 28003KT 250V320 CAVOK 04/M02 Q1015 NOSIG
08:13 VATSIM:LEDA 110800Z 06004KT 7000 NSC M02/M03 Q1013
08:15 VOICE CATALONIAN
08:17 Parking Brakes off
08:26 Take-off
08:26 Take off Weight: 76052 Lbs
08:26 Wind: 279º @ 003 Knots Heading: 295º
08:26 POS N39º 29´ 28´´ W000º 29´ 12´´
08:27 Gear Up: 239 Knots
08:39 TOC
08:39 Fuel Weight: 3759 Lb
08:42 Wind:276º@004 Knots Heading: 016º Ground Speed: 351 Knots Altitude 14078 ft
08:48
TOD
08:48 Fuel Weight: 3025 Lb
08:57 Wind:066º@003 Knots Heading: 354º Ground Speed: 264 Knots Altitude 5528 ft
08:59 Flaps:1 at 209 Knots
09:04 Flaps:2 at 209 Knots
09:04 Gear Down: 191 Knots
09:04 Flaps:3 at 185 Knots
09:05 Flaps:4 at 165 Knots
09:07 TouchDown:Rate -226 ft/min Speed: 112 Knots
09:07 VATSIM:LEDA 110830Z 07003KT 9000 NSC M01/M03 Q1013
09:07 Land
09:07 Wind:069º@003 Knots
09:07 Heading: 133º
09:07 Flight Duration: 00:41
09:07 Landing Weight: 73052 Lbs
09:07 POS N41º 43´ 51´´ E000º 31´ 52´´
09:10 Parking brakes on
09:10 Block to Block Duration: 00:53
09:10 Final Fuel: 1917 Lbls
09:10 Spent Fuel: 3659 Lbls
09:10 Flight Length: 183 NM
09:10 TOD Land Length: 76 NM

Exportar CSV

Powered by Drupal - Modified by Danger4k